sensor_id;sensor_type;location;lat;lon;timestamp;P1;durP1;ratioP1;P2;durP2;ratioP2
12433;SDS011;6281;49.038;8.372;2023-04-25T00:02:01;4.03;;;2.30;;
12433;SDS011;6281;49.038;8.372;2023-04-25T00:04:28;3.43;;;2.23;;
12433;SDS011;6281;49.038;8.372;2023-04-25T00:06:58;1.80;;;1.60;;
12433;SDS011;6281;49.038;8.372;2023-04-25T00:09:27;2.23;;;1.80;;
12433;SDS011;6281;49.038;8.372;2023-04-25T00:12:01;2.47;;;2.10;;
12433;SDS011;6281;49.038;8.372;2023-04-25T00:14:31;3.20;;;2.40;;
12433;SDS011;6281;49.038;8.372;2023-04-25T00:16:59;2.00;;;1.60;;
12433;SDS011;6281;49.038;8.372;2023-04-25T00:19:29;2.53;;;2.07;;
12433;SDS011;6281;49.038;8.372;2023-04-25T00:21:57;2.40;;;1.70;;
12433;SDS011;6281;49.038;8.372;2023-04-25T00:24:24;2.60;;;2.37;;
12433;SDS011;6281;49.038;8.372;2023-04-25T00:26:51;3.50;;;2.30;;
12433;SDS011;6281;49.038;8.372;2023-04-25T00:29:18;2.97;;;2.20;;
12433;SDS011;6281;49.038;8.372;2023-04-25T00:31:47;2.67;;;2.10;;
12433;SDS011;6281;49.038;8.372;2023-04-25T00:34:14;2.40;;;1.83;;
12433;SDS011;6281;49.038;8.372;2023-04-25T00:36:41;2.93;;;1.83;;
12433;SDS011;6281;49.038;8.372;2023-04-25T00:39:08;2.20;;;1.90;;
12433;SDS011;6281;49.038;8.372;2023-04-25T00:41:35;3.37;;;1.80;;
12433;SDS011;6281;49.038;8.372;2023-04-25T00:44:03;1.97;;;1.77;;
12433;SDS011;6281;49.038;8.372;2023-04-25T00:46:30;2.90;;;2.30;;
12433;SDS011;6281;49.038;8.372;2023-04-25T00:48:59;2.97;;;2.40;;
12433;SDS011;6281;49.038;8.372;2023-04-25T00:51:37;2.50;;;1.73;;
12433;SDS011;6281;49.038;8.372;2023-04-25T00:54:04;3.13;;;2.20;;
12433;SDS011;6281;49.038;8.372;2023-04-25T00:56:31;1.87;;;1.60;;
12433;SDS011;6281;49.038;8.372;2023-04-25T00:58:58;2.90;;;2.07;;
12433;SDS011;6281;49.038;8.372;2023-04-25T01:01:25;2.03;;;1.70;;
12433;SDS011;6281;49.038;8.372;2023-04-25T01:03:51;4.67;;;2.00;;
12433;SDS011;6281;49.038;8.372;2023-04-25T01:06:21;2.63;;;2.10;;
12433;SDS011;6281;49.038;8.372;2023-04-25T01:08:48;3.43;;;2.20;;
12433;SDS011;6281;49.038;8.372;2023-04-25T01:11:16;2.40;;;1.70;;
12433;SDS011;6281;49.038;8.372;2023-04-25T01:13:55;2.67;;;2.10;;
12433;SDS011;6281;49.038;8.372;2023-04-25T01:16:22;4.07;;;2.27;;
12433;SDS011;6281;49.038;8.372;2023-04-25T01:18:50;2.33;;;1.90;;
12433;SDS011;6281;49.038;8.372;2023-04-25T01:21:18;3.57;;;2.40;;
12433;SDS011;6281;49.038;8.372;2023-04-25T01:23:45;2.97;;;2.20;;
12433;SDS011;6281;49.038;8.372;2023-04-25T01:26:13;3.27;;;2.43;;
12433;SDS011;6281;49.038;8.372;2023-04-25T01:28:40;2.97;;;2.23;;
12433;SDS011;6281;49.038;8.372;2023-04-25T01:31:07;2.63;;;2.13;;
12433;SDS011;6281;49.038;8.372;2023-04-25T01:33:34;2.83;;;2.33;;
12433;SDS011;6281;49.038;8.372;2023-04-25T01:36:01;2.33;;;1.70;;
12433;SDS011;6281;49.038;8.372;2023-04-25T01:38:30;1.83;;;1.70;;
12433;SDS011;6281;49.038;8.372;2023-04-25T01:40:57;3.00;;;2.10;;
12433;SDS011;6281;49.038;8.372;2023-04-25T01:43:24;3.37;;;2.33;;
12433;SDS011;6281;49.038;8.372;2023-04-25T01:45:52;4.27;;;2.33;;
12433;SDS011;6281;49.038;8.372;2023-04-25T01:48:19;3.57;;;2.33;;
12433;SDS011;6281;49.038;8.372;2023-04-25T01:50:46;2.73;;;2.10;;
12433;SDS011;6281;49.038;8.372;2023-04-25T01:53:13;3.17;;;2.53;;
12433;SDS011;6281;49.038;8.372;2023-04-25T01:55:42;4.80;;;2.30;;
12433;SDS011;6281;49.038;8.372;2023-04-25T01:58:09;5.13;;;2.73;;
12433;SDS011;6281;49.038;8.372;2023-04-25T02:00:37;3.30;;;2.40;;
12433;SDS011;6281;49.038;8.372;2023-04-25T02:03:06;2.70;;;2.33;;
12433;SDS011;6281;49.038;8.372;2023-04-25T02:05:34;3.40;;;2.10;;
12433;SDS011;6281;49.038;8.372;2023-04-25T02:08:02;3.17;;;2.30;;
12433;SDS011;6281;49.038;8.372;2023-04-25T02:10:29;4.63;;;2.60;;
12433;SDS011;6281;49.038;8.372;2023-04-25T02:12:58;2.93;;;2.17;;
12433;SDS011;6281;49.038;8.372;2023-04-25T02:15:25;3.30;;;2.27;;
12433;SDS011;6281;49.038;8.372;2023-04-25T02:17:52;2.97;;;2.40;;
12433;SDS011;6281;49.038;8.372;2023-04-25T02:20:18;4.47;;;2.37;;
12433;SDS011;6281;49.038;8.372;2023-04-25T02:22:46;4.57;;;2.87;;
12433;SDS011;6281;49.038;8.372;2023-04-25T02:25:13;2.77;;;2.17;;
12433;SDS011;6281;49.038;8.372;2023-04-25T02:27:40;4.13;;;2.77;;
12433;SDS011;6281;49.038;8.372;2023-04-25T02:30:09;2.73;;;2.30;;
12433;SDS011;6281;49.038;8.372;2023-04-25T02:32:36;3.03;;;2.27;;
12433;SDS011;6281;49.038;8.372;2023-04-25T02:35:04;2.80;;;2.33;;
12433;SDS011;6281;49.038;8.372;2023-04-25T02:37:31;3.37;;;2.50;;
12433;SDS011;6281;49.038;8.372;2023-04-25T02:39:58;3.77;;;2.47;;
12433;SDS011;6281;49.038;8.372;2023-04-25T02:42:25;4.63;;;2.40;;
12433;SDS011;6281;49.038;8.372;2023-04-25T02:44:52;3.17;;;2.40;;
12433;SDS011;6281;49.038;8.372;2023-04-25T02:47:21;3.27;;;2.10;;
12433;SDS011;6281;49.038;8.372;2023-04-25T02:49:48;5.50;;;2.93;;
12433;SDS011;6281;49.038;8.372;2023-04-25T02:52:14;4.57;;;2.60;;
12433;SDS011;6281;49.038;8.372;2023-04-25T02:54:41;3.27;;;2.60;;
12433;SDS011;6281;49.038;8.372;2023-04-25T02:57:08;4.07;;;2.60;;
12433;SDS011;6281;49.038;8.372;2023-04-25T02:59:35;3.80;;;2.60;;
12433;SDS011;6281;49.038;8.372;2023-04-25T03:02:02;4.17;;;2.77;;
12433;SDS011;6281;49.038;8.372;2023-04-25T03:04:30;4.33;;;2.60;;
12433;SDS011;6281;49.038;8.372;2023-04-25T03:06:58;3.63;;;2.47;;
12433;SDS011;6281;49.038;8.372;2023-04-25T03:09:26;3.73;;;2.87;;
12433;SDS011;6281;49.038;8.372;2023-04-25T03:11:52;3.97;;;2.97;;
12433;SDS011;6281;49.038;8.372;2023-04-25T03:14:19;3.73;;;2.40;;
12433;SDS011;6281;49.038;8.372;2023-04-25T03:16:46;2.57;;;2.27;;
12433;SDS011;6281;49.038;8.372;2023-04-25T03:19:12;2.73;;;2.37;;
12433;SDS011;6281;49.038;8.372;2023-04-25T03:21:42;4.23;;;2.83;;
12433;SDS011;6281;49.038;8.372;2023-04-25T03:24:09;4.50;;;2.60;;
12433;SDS011;6281;49.038;8.372;2023-04-25T03:26:37;4.40;;;2.70;;
12433;SDS011;6281;49.038;8.372;2023-04-25T03:29:04;3.83;;;2.93;;
12433;SDS011;6281;49.038;8.372;2023-04-25T03:31:31;3.67;;;3.00;;
12433;SDS011;6281;49.038;8.372;2023-04-25T03:33:58;3.10;;;2.33;;
12433;SDS011;6281;49.038;8.372;2023-04-25T03:36:25;3.90;;;2.80;;
12433;SDS011;6281;49.038;8.372;2023-04-25T03:38:53;4.10;;;2.77;;
12433;SDS011;6281;49.038;8.372;2023-04-25T03:41:20;3.57;;;2.80;;
12433;SDS011;6281;49.038;8.372;2023-04-25T03:43:47;3.87;;;2.70;;
12433;SDS011;6281;49.038;8.372;2023-04-25T03:46:14;5.07;;;3.10;;
12433;SDS011;6281;49.038;8.372;2023-04-25T03:48:41;3.70;;;2.63;;
12433;SDS011;6281;49.038;8.372;2023-04-25T03:51:08;3.87;;;2.93;;
12433;SDS011;6281;49.038;8.372;2023-04-25T03:53:34;3.23;;;2.83;;
12433;SDS011;6281;49.038;8.372;2023-04-25T03:56:03;3.97;;;2.60;;
12433;SDS011;6281;49.038;8.372;2023-04-25T03:58:30;3.73;;;2.70;;
12433;SDS011;6281;49.038;8.372;2023-04-25T04:00:57;5.23;;;2.70;;
12433;SDS011;6281;49.038;8.372;2023-04-25T04:03:24;2.63;;;2.17;;
12433;SDS011;6281;49.038;8.372;2023-04-25T04:05:51;3.80;;;2.83;;
12433;SDS011;6281;49.038;8.372;2023-04-25T04:08:18;3.77;;;2.70;;
12433;SDS011;6281;49.038;8.372;2023-04-25T04:10:45;3.10;;;2.53;;
12433;SDS011;6281;49.038;8.372;2023-04-25T04:13:13;3.50;;;2.77;;
12433;SDS011;6281;49.038;8.372;2023-04-25T04:15:40;3.83;;;2.60;;
12433;SDS011;6281;49.038;8.372;2023-04-25T04:18:07;3.60;;;2.70;;
12433;SDS011;6281;49.038;8.372;2023-04-25T04:20:34;2.73;;;2.27;;
12433;SDS011;6281;49.038;8.372;2023-04-25T04:23:01;3.23;;;2.50;;
12433;SDS011;6281;49.038;8.372;2023-04-25T04:25:28;3.50;;;2.63;;
12433;SDS011;6281;49.038;8.372;2023-04-25T04:27:55;5.17;;;3.00;;
12433;SDS011;6281;49.038;8.372;2023-04-25T04:30:24;3.33;;;2.53;;
12433;SDS011;6281;49.038;8.372;2023-04-25T04:32:54;4.27;;;2.77;;
12433;SDS011;6281;49.038;8.372;2023-04-25T04:35:21;3.90;;;2.93;;
12433;SDS011;6281;49.038;8.372;2023-04-25T04:37:48;3.83;;;2.67;;
12433;SDS011;6281;49.038;8.372;2023-04-25T04:40:15;3.77;;;2.73;;
12433;SDS011;6281;49.038;8.372;2023-04-25T04:42:43;4.43;;;3.00;;
12433;SDS011;6281;49.038;8.372;2023-04-25T04:45:11;3.37;;;2.60;;
12433;SDS011;6281;49.038;8.372;2023-04-25T04:47:40;3.40;;;2.57;;
12433;SDS011;6281;49.038;8.372;2023-04-25T04:50:08;3.97;;;2.70;;
12433;SDS011;6281;49.038;8.372;2023-04-25T04:52:36;4.33;;;2.37;;
12433;SDS011;6281;49.038;8.372;2023-04-25T04:55:04;4.53;;;3.07;;
12433;SDS011;6281;49.038;8.372;2023-04-25T04:57:32;3.17;;;2.50;;
12433;SDS011;6281;49.038;8.372;2023-04-25T05:00:00;3.00;;;2.70;;
12433;SDS011;6281;49.038;8.372;2023-04-25T05:02:27;3.67;;;3.00;;
12433;SDS011;6281;49.038;8.372;2023-04-25T05:04:56;2.60;;;2.37;;
12433;SDS011;6281;49.038;8.372;2023-04-25T05:07:23;3.57;;;2.73;;
12433;SDS011;6281;49.038;8.372;2023-04-25T05:09:50;3.57;;;2.73;;
12433;SDS011;6281;49.038;8.372;2023-04-25T05:12:17;3.83;;;2.87;;
12433;SDS011;6281;49.038;8.372;2023-04-25T05:14:44;3.60;;;2.40;;
12433;SDS011;6281;49.038;8.372;2023-04-25T05:17:11;4.50;;;2.63;;
12433;SDS011;6281;49.038;8.372;2023-04-25T05:19:38;3.20;;;2.47;;
12433;SDS011;6281;49.038;8.372;2023-04-25T05:22:07;3.10;;;2.70;;
12433;SDS011;6281;49.038;8.372;2023-04-25T05:24:33;3.43;;;2.50;;
12433;SDS011;6281;49.038;8.372;2023-04-25T05:27:00;3.47;;;2.10;;
12433;SDS011;6281;49.038;8.372;2023-04-25T05:29:27;3.17;;;2.20;;
12433;SDS011;6281;49.038;8.372;2023-04-25T05:31:54;3.93;;;2.50;;
12433;SDS011;6281;49.038;8.372;2023-04-25T05:34:21;3.23;;;2.63;;
12433;SDS011;6281;49.038;8.372;2023-04-25T05:36:48;4.43;;;3.13;;
12433;SDS011;6281;49.038;8.372;2023-04-25T05:39:17;2.53;;;2.10;;
12433;SDS011;6281;49.038;8.372;2023-04-25T05:41:43;2.93;;;2.63;;
12433;SDS011;6281;49.038;8.372;2023-04-25T05:44:10;3.53;;;2.80;;
12433;SDS011;6281;49.038;8.372;2023-04-25T05:46:37;4.13;;;2.50;;
12433;SDS011;6281;49.038;8.372;2023-04-25T05:49:04;6.70;;;2.93;;
12433;SDS011;6281;49.038;8.372;2023-04-25T05:51:31;4.17;;;2.40;;
12433;SDS011;6281;49.038;8.372;2023-04-25T05:53:58;2.90;;;2.57;;
12433;SDS011;6281;49.038;8.372;2023-04-25T05:56:27;4.33;;;2.90;;
12433;SDS011;6281;49.038;8.372;2023-04-25T05:58:54;2.87;;;2.53;;
12433;SDS011;6281;49.038;8.372;2023-04-25T06:01:21;3.60;;;2.50;;
12433;SDS011;6281;49.038;8.372;2023-04-25T06:03:48;3.60;;;2.47;;
12433;SDS011;6281;49.038;8.372;2023-04-25T06:06:16;5.60;;;2.97;;
12433;SDS011;6281;49.038;8.372;2023-04-25T06:08:43;3.70;;;2.70;;
12433;SDS011;6281;49.038;8.372;2023-04-25T06:11:10;3.83;;;2.77;;
12433;SDS011;6281;49.038;8.372;2023-04-25T06:13:38;3.30;;;2.53;;
12433;SDS011;6281;49.038;8.372;2023-04-25T06:16:05;3.87;;;2.87;;
12433;SDS011;6281;49.038;8.372;2023-04-25T06:18:32;4.57;;;2.87;;
12433;SDS011;6281;49.038;8.372;2023-04-25T06:20:59;3.80;;;2.80;;
12433;SDS011;6281;49.038;8.372;2023-04-25T06:23:27;4.30;;;2.70;;
12433;SDS011;6281;49.038;8.372;2023-04-25T06:25:54;3.80;;;2.87;;
12433;SDS011;6281;49.038;8.372;2023-04-25T06:28:21;5.37;;;2.63;;
12433;SDS011;6281;49.038;8.372;2023-04-25T06:30:50;3.07;;;2.53;;
12433;SDS011;6281;49.038;8.372;2023-04-25T06:33:17;4.07;;;2.93;;
12433;SDS011;6281;49.038;8.372;2023-04-25T06:35:45;4.23;;;3.03;;
12433;SDS011;6281;49.038;8.372;2023-04-25T06:38:11;4.10;;;2.97;;
12433;SDS011;6281;49.038;8.372;2023-04-25T06:40:38;3.50;;;2.80;;
12433;SDS011;6281;49.038;8.372;2023-04-25T06:43:05;3.43;;;2.63;;
12433;SDS011;6281;49.038;8.372;2023-04-25T06:45:32;4.97;;;3.17;;
12433;SDS011;6281;49.038;8.372;2023-04-25T06:48:00;3.57;;;2.67;;
12433;SDS011;6281;49.038;8.372;2023-04-25T06:50:27;5.67;;;3.30;;
12433;SDS011;6281;49.038;8.372;2023-04-25T06:52:56;4.87;;;3.10;;
12433;SDS011;6281;49.038;8.372;2023-04-25T06:55:23;4.70;;;3.27;;
12433;SDS011;6281;49.038;8.372;2023-04-25T06:57:49;5.00;;;3.37;;
12433;SDS011;6281;49.038;8.372;2023-04-25T07:00:16;4.87;;;3.50;;
12433;SDS011;6281;49.038;8.372;2023-04-25T07:02:44;5.23;;;4.03;;
12433;SDS011;6281;49.038;8.372;2023-04-25T07:05:12;5.03;;;3.50;;
12433;SDS011;6281;49.038;8.372;2023-04-25T07:07:40;5.03;;;3.40;;
12433;SDS011;6281;49.038;8.372;2023-04-25T07:10:07;3.87;;;2.97;;
12433;SDS011;6281;49.038;8.372;2023-04-25T07:12:34;6.20;;;4.50;;
12433;SDS011;6281;49.038;8.372;2023-04-25T07:15:01;4.60;;;3.20;;
12433;SDS011;6281;49.038;8.372;2023-04-25T07:17:31;3.93;;;2.60;;
12433;SDS011;6281;49.038;8.372;2023-04-25T07:19:59;4.80;;;3.70;;
12433;SDS011;6281;49.038;8.372;2023-04-25T07:22:27;5.07;;;3.17;;
12433;SDS011;6281;49.038;8.372;2023-04-25T07:24:54;4.67;;;3.23;;
12433;SDS011;6281;49.038;8.372;2023-04-25T07:27:21;3.83;;;3.10;;
12433;SDS011;6281;49.038;8.372;2023-04-25T07:29:48;3.20;;;2.57;;
12433;SDS011;6281;49.038;8.372;2023-04-25T07:32:15;3.80;;;3.13;;
12433;SDS011;6281;49.038;8.372;2023-04-25T07:34:42;3.80;;;3.30;;
12433;SDS011;6281;49.038;8.372;2023-04-25T07:37:09;4.27;;;3.40;;
12433;SDS011;6281;49.038;8.372;2023-04-25T07:39:37;4.70;;;3.60;;
12433;SDS011;6281;49.038;8.372;2023-04-25T07:42:04;3.73;;;3.10;;
12433;SDS011;6281;49.038;8.372;2023-04-25T07:44:33;6.57;;;3.47;;
12433;SDS011;6281;49.038;8.372;2023-04-25T07:47:03;5.53;;;3.70;;
12433;SDS011;6281;49.038;8.372;2023-04-25T07:49:31;6.37;;;3.97;;
12433;SDS011;6281;49.038;8.372;2023-04-25T07:51:59;5.27;;;3.60;;
12433;SDS011;6281;49.038;8.372;2023-04-25T07:54:26;6.10;;;4.30;;
12433;SDS011;6281;49.038;8.372;2023-04-25T07:56:54;5.23;;;3.53;;
12433;SDS011;6281;49.038;8.372;2023-04-25T07:59:22;4.97;;;3.60;;
12433;SDS011;6281;49.038;8.372;2023-04-25T08:01:48;6.37;;;4.13;;
12433;SDS011;6281;49.038;8.372;2023-04-25T08:04:15;5.17;;;4.27;;
12433;SDS011;6281;49.038;8.372;2023-04-25T08:06:43;9.77;;;4.20;;
12433;SDS011;6281;49.038;8.372;2023-04-25T08:09:10;8.23;;;4.33;;
12433;SDS011;6281;49.038;8.372;2023-04-25T08:11:37;7.47;;;4.07;;
12433;SDS011;6281;49.038;8.372;2023-04-25T08:14:06;8.20;;;4.87;;
12433;SDS011;6281;49.038;8.372;2023-04-25T08:16:33;8.33;;;4.67;;
12433;SDS011;6281;49.038;8.372;2023-04-25T08:19:00;7.53;;;4.37;;
12433;SDS011;6281;49.038;8.372;2023-04-25T08:21:27;6.13;;;4.93;;
12433;SDS011;6281;49.038;8.372;2023-04-25T08:23:54;9.03;;;5.03;;
12433;SDS011;6281;49.038;8.372;2023-04-25T08:26:22;7.10;;;4.97;;
12433;SDS011;6281;49.038;8.372;2023-04-25T08:28:49;8.87;;;4.80;;
12433;SDS011;6281;49.038;8.372;2023-04-25T08:31:18;6.73;;;4.73;;
12433;SDS011;6281;49.038;8.372;2023-04-25T08:33:45;9.93;;;5.20;;
12433;SDS011;6281;49.038;8.372;2023-04-25T08:36:12;8.20;;;4.83;;
12433;SDS011;6281;49.038;8.372;2023-04-25T08:38:39;6.63;;;4.73;;
12433;SDS011;6281;49.038;8.372;2023-04-25T08:41:06;7.07;;;4.60;;
12433;SDS011;6281;49.038;8.372;2023-04-25T08:43:33;7.53;;;5.33;;
12433;SDS011;6281;49.038;8.372;2023-04-25T08:46:01;7.57;;;4.77;;
12433;SDS011;6281;49.038;8.372;2023-04-25T08:48:31;8.10;;;4.83;;
12433;SDS011;6281;49.038;8.372;2023-04-25T08:50:59;5.83;;;4.43;;
12433;SDS011;6281;49.038;8.372;2023-04-25T08:53:29;6.83;;;4.90;;
12433;SDS011;6281;49.038;8.372;2023-04-25T08:55:57;8.07;;;5.00;;
12433;SDS011;6281;49.038;8.372;2023-04-25T08:58:26;6.70;;;5.07;;
12433;SDS011;6281;49.038;8.372;2023-04-25T09:00:54;6.47;;;4.63;;
12433;SDS011;6281;49.038;8.372;2023-04-25T09:03:21;6.27;;;4.43;;
12433;SDS011;6281;49.038;8.372;2023-04-25T09:05:50;7.13;;;5.07;;
12433;SDS011;6281;49.038;8.372;2023-04-25T09:08:17;6.97;;;4.73;;
12433;SDS011;6281;49.038;8.372;2023-04-25T09:10:44;6.83;;;4.57;;
12433;SDS011;6281;49.038;8.372;2023-04-25T09:13:13;6.83;;;4.47;;
12433;SDS011;6281;49.038;8.372;2023-04-25T09:15:47;6.57;;;4.30;;
12433;SDS011;6281;49.038;8.372;2023-04-25T09:18:21;5.60;;;3.80;;
12433;SDS011;6281;49.038;8.372;2023-04-25T09:20:53;7.23;;;5.20;;
12433;SDS011;6281;49.038;8.372;2023-04-25T09:23:20;6.47;;;5.00;;
12433;SDS011;6281;49.038;8.372;2023-04-25T09:25:48;6.47;;;4.20;;
12433;SDS011;6281;49.038;8.372;2023-04-25T09:28:16;7.40;;;5.07;;
12433;SDS011;6281;49.038;8.372;2023-04-25T09:30:49;7.27;;;4.63;;
12433;SDS011;6281;49.038;8.372;2023-04-25T09:33:15;9.43;;;4.33;;
12433;SDS011;6281;49.038;8.372;2023-04-25T09:35:43;6.30;;;4.63;;
12433;SDS011;6281;49.038;8.372;2023-04-25T09:38:12;5.57;;;3.73;;
12433;SDS011;6281;49.038;8.372;2023-04-25T09:40:43;12.50;;;7.33;;
12433;SDS011;6281;49.038;8.372;2023-04-25T09:43:18;8.53;;;5.13;;
12433;SDS011;6281;49.038;8.372;2023-04-25T09:45:46;8.80;;;5.43;;
12433;SDS011;6281;49.038;8.372;2023-04-25T09:48:16;10.43;;;6.57;;
12433;SDS011;6281;49.038;8.372;2023-04-25T09:50:45;10.83;;;7.53;;
12433;SDS011;6281;49.038;8.372;2023-04-25T09:53:14;10.17;;;6.10;;
12433;SDS011;6281;49.038;8.372;2023-04-25T09:55:41;11.50;;;6.33;;
12433;SDS011;6281;49.038;8.372;2023-04-25T09:58:10;8.37;;;5.53;;
12433;SDS011;6281;49.038;8.372;2023-04-25T10:00:38;8.90;;;6.30;;
12433;SDS011;6281;49.038;8.372;2023-04-25T10:03:06;10.43;;;6.13;;
12433;SDS011;6281;49.038;8.372;2023-04-25T10:05:34;8.73;;;5.97;;
12433;SDS011;6281;49.038;8.372;2023-04-25T10:08:02;9.90;;;6.13;;
12433;SDS011;6281;49.038;8.372;2023-04-25T10:10:33;9.53;;;5.97;;
12433;SDS011;6281;49.038;8.372;2023-04-25T10:13:03;8.17;;;5.43;;
12433;SDS011;6281;49.038;8.372;2023-04-25T10:15:32;11.17;;;6.33;;
12433;SDS011;6281;49.038;8.372;2023-04-25T10:18:03;9.30;;;6.20;;
12433;SDS011;6281;49.038;8.372;2023-04-25T10:20:31;8.23;;;5.10;;
12433;SDS011;6281;49.038;8.372;2023-04-25T10:23:03;6.07;;;4.87;;
12433;SDS011;6281;49.038;8.372;2023-04-25T10:25:35;6.80;;;4.63;;
12433;SDS011;6281;49.038;8.372;2023-04-25T10:28:03;7.80;;;5.13;;
12433;SDS011;6281;49.038;8.372;2023-04-25T10:30:30;7.93;;;4.33;;
12433;SDS011;6281;49.038;8.372;2023-04-25T10:32:58;5.27;;;4.40;;
12433;SDS011;6281;49.038;8.372;2023-04-25T10:35:26;6.03;;;4.30;;
12433;SDS011;6281;49.038;8.372;2023-04-25T10:37:59;8.13;;;4.23;;
12433;SDS011;6281;49.038;8.372;2023-04-25T10:40:28;6.90;;;4.53;;
12433;SDS011;6281;49.038;8.372;2023-04-25T10:42:57;7.17;;;4.30;;
12433;SDS011;6281;49.038;8.372;2023-04-25T10:46:02;7.37;;;4.53;;
12433;SDS011;6281;49.038;8.372;2023-04-25T10:48:38;7.63;;;5.23;;
12433;SDS011;6281;49.038;8.372;2023-04-25T10:51:14;6.23;;;4.27;;
12433;SDS011;6281;49.038;8.372;2023-04-25T10:53:43;7.73;;;4.40;;
12433;SDS011;6281;49.038;8.372;2023-04-25T10:56:11;5.63;;;3.93;;
12433;SDS011;6281;49.038;8.372;2023-04-25T10:58:43;9.63;;;5.27;;
12433;SDS011;6281;49.038;8.372;2023-04-25T11:01:10;7.90;;;4.60;;
12433;SDS011;6281;49.038;8.372;2023-04-25T11:03:42;8.17;;;4.97;;
12433;SDS011;6281;49.038;8.372;2023-04-25T11:06:12;8.57;;;5.10;;
12433;SDS011;6281;49.038;8.372;2023-04-25T11:08:49;9.33;;;5.10;;
12433;SDS011;6281;49.038;8.372;2023-04-25T11:11:17;4.97;;;3.00;;
12433;SDS011;6281;49.038;8.372;2023-04-25T11:13:48;3.87;;;1.87;;
12433;SDS011;6281;49.038;8.372;2023-04-25T11:16:15;4.00;;;2.93;;
12433;SDS011;6281;49.038;8.372;2023-04-25T11:18:42;3.53;;;2.40;;
12433;SDS011;6281;49.038;8.372;2023-04-25T11:21:10;3.47;;;2.47;;
12433;SDS011;6281;49.038;8.372;2023-04-25T11:23:37;5.00;;;2.90;;
12433;SDS011;6281;49.038;8.372;2023-04-25T11:26:04;4.23;;;2.97;;
12433;SDS011;6281;49.038;8.372;2023-04-25T11:28:31;4.87;;;2.80;;
12433;SDS011;6281;49.038;8.372;2023-04-25T11:30:59;5.17;;;3.50;;
12433;SDS011;6281;49.038;8.372;2023-04-25T11:33:26;3.97;;;3.00;;
12433;SDS011;6281;49.038;8.372;2023-04-25T11:35:53;8.03;;;3.73;;
12433;SDS011;6281;49.038;8.372;2023-04-25T11:38:21;8.37;;;3.13;;
12433;SDS011;6281;49.038;8.372;2023-04-25T11:40:51;6.93;;;3.47;;
12433;SDS011;6281;49.038;8.372;2023-04-25T11:43:20;5.20;;;3.53;;
12433;SDS011;6281;49.038;8.372;2023-04-25T11:45:47;4.93;;;2.90;;
12433;SDS011;6281;49.038;8.372;2023-04-25T11:48:16;5.53;;;3.37;;
12433;SDS011;6281;49.038;8.372;2023-04-25T11:50:43;5.50;;;3.77;;
12433;SDS011;6281;49.038;8.372;2023-04-25T11:53:11;7.57;;;3.83;;
12433;SDS011;6281;49.038;8.372;2023-04-25T11:55:38;8.80;;;5.40;;
12433;SDS011;6281;49.038;8.372;2023-04-25T11:58:05;7.73;;;4.00;;
12433;SDS011;6281;49.038;8.372;2023-04-25T12:00:33;5.27;;;3.97;;
12433;SDS011;6281;49.038;8.372;2023-04-25T12:03:01;8.30;;;4.30;;
12433;SDS011;6281;49.038;8.372;2023-04-25T12:05:30;5.50;;;3.80;;
12433;SDS011;6281;49.038;8.372;2023-04-25T12:07:58;4.43;;;3.03;;
12433;SDS011;6281;49.038;8.372;2023-04-25T12:10:36;4.30;;;3.47;;
12433;SDS011;6281;49.038;8.372;2023-04-25T12:13:17;5.93;;;3.63;;
12433;SDS011;6281;49.038;8.372;2023-04-25T12:15:45;4.50;;;3.30;;
12433;SDS011;6281;49.038;8.372;2023-04-25T12:18:12;6.47;;;3.93;;
12433;SDS011;6281;49.038;8.372;2023-04-25T12:20:41;4.10;;;2.43;;
12433;SDS011;6281;49.038;8.372;2023-04-25T12:23:08;6.13;;;4.00;;
12433;SDS011;6281;49.038;8.372;2023-04-25T12:25:36;5.93;;;3.43;;
12433;SDS011;6281;49.038;8.372;2023-04-25T12:28:11;4.57;;;3.10;;
12433;SDS011;6281;49.038;8.372;2023-04-25T12:30:59;5.90;;;3.50;;
12433;SDS011;6281;49.038;8.372;2023-04-25T12:33:28;3.73;;;2.87;;
12433;SDS011;6281;49.038;8.372;2023-04-25T12:36:02;4.57;;;3.27;;
12433;SDS011;6281;49.038;8.372;2023-04-25T12:38:35;3.63;;;2.70;;
12433;SDS011;6281;49.038;8.372;2023-04-25T12:41:02;7.47;;;3.03;;
12433;SDS011;6281;49.038;8.372;2023-04-25T12:43:29;3.97;;;2.83;;
12433;SDS011;6281;49.038;8.372;2023-04-25T12:45:56;4.50;;;3.47;;
12433;SDS011;6281;49.038;8.372;2023-04-25T12:48:23;3.83;;;2.87;;
12433;SDS011;6281;49.038;8.372;2023-04-25T12:50:51;5.77;;;2.83;;
12433;SDS011;6281;49.038;8.372;2023-04-25T12:53:22;5.13;;;2.80;;
12433;SDS011;6281;49.038;8.372;2023-04-25T12:55:54;3.43;;;2.77;;
12433;SDS011;6281;49.038;8.372;2023-04-25T12:58:21;3.37;;;2.37;;
12433;SDS011;6281;49.038;8.372;2023-04-25T13:00:48;4.30;;;2.87;;
12433;SDS011;6281;49.038;8.372;2023-04-25T13:03:15;4.63;;;2.10;;
12433;SDS011;6281;49.038;8.372;2023-04-25T13:05:42;3.13;;;2.10;;
12433;SDS011;6281;49.038;8.372;2023-04-25T13:08:09;3.53;;;2.10;;
12433;SDS011;6281;49.038;8.372;2023-04-25T13:10:38;2.70;;;2.20;;
12433;SDS011;6281;49.038;8.372;2023-04-25T13:13:05;3.47;;;2.13;;
12433;SDS011;6281;49.038;8.372;2023-04-25T13:15:32;2.40;;;2.10;;
12433;SDS011;6281;49.038;8.372;2023-04-25T13:18:00;2.63;;;2.00;;
12433;SDS011;6281;49.038;8.372;2023-04-25T13:20:27;3.27;;;2.07;;
12433;SDS011;6281;49.038;8.372;2023-04-25T13:22:54;2.40;;;2.10;;
12433;SDS011;6281;49.038;8.372;2023-04-25T13:25:21;3.50;;;2.10;;
12433;SDS011;6281;49.038;8.372;2023-04-25T13:27:49;4.53;;;2.20;;
12433;SDS011;6281;49.038;8.372;2023-04-25T13:30:16;2.43;;;1.77;;
12433;SDS011;6281;49.038;8.372;2023-04-25T13:32:43;2.17;;;1.80;;
12433;SDS011;6281;49.038;8.372;2023-04-25T13:35:11;2.90;;;2.07;;
12433;SDS011;6281;49.038;8.372;2023-04-25T13:37:40;2.87;;;2.20;;
12433;SDS011;6281;49.038;8.372;2023-04-25T13:40:08;1.90;;;1.40;;
12433;SDS011;6281;49.038;8.372;2023-04-25T13:42:37;2.20;;;1.67;;
12433;SDS011;6281;49.038;8.372;2023-04-25T13:45:06;2.83;;;1.77;;
12433;SDS011;6281;49.038;8.372;2023-04-25T13:47:34;2.43;;;2.10;;
12433;SDS011;6281;49.038;8.372;2023-04-25T13:50:03;3.47;;;1.97;;
12433;SDS011;6281;49.038;8.372;2023-04-25T13:52:32;3.40;;;2.20;;
12433;SDS011;6281;49.038;8.372;2023-04-25T13:55:04;2.80;;;2.23;;
12433;SDS011;6281;49.038;8.372;2023-04-25T13:57:32;2.37;;;1.70;;
12433;SDS011;6281;49.038;8.372;2023-04-25T13:59:59;2.57;;;2.13;;
12433;SDS011;6281;49.038;8.372;2023-04-25T14:02:31;2.33;;;2.13;;
12433;SDS011;6281;49.038;8.372;2023-04-25T14:04:58;4.37;;;2.27;;
12433;SDS011;6281;49.038;8.372;2023-04-25T14:07:25;2.30;;;2.10;;
12433;SDS011;6281;49.038;8.372;2023-04-25T14:09:53;2.10;;;1.83;;
12433;SDS011;6281;49.038;8.372;2023-04-25T14:12:20;4.13;;;2.17;;
12433;SDS011;6281;49.038;8.372;2023-04-25T14:14:47;5.10;;;2.50;;
12433;SDS011;6281;49.038;8.372;2023-04-25T14:17:14;3.43;;;2.50;;
12433;SDS011;6281;49.038;8.372;2023-04-25T14:19:42;3.47;;;2.47;;
12433;SDS011;6281;49.038;8.372;2023-04-25T14:22:10;3.07;;;2.53;;
12433;SDS011;6281;49.038;8.372;2023-04-25T14:24:39;4.63;;;2.13;;
12433;SDS011;6281;49.038;8.372;2023-04-25T14:27:06;3.50;;;2.17;;
12433;SDS011;6281;49.038;8.372;2023-04-25T14:29:41;3.83;;;2.60;;
12433;SDS011;6281;49.038;8.372;2023-04-25T14:32:08;5.77;;;2.53;;
12433;SDS011;6281;49.038;8.372;2023-04-25T14:34:35;3.37;;;2.00;;
12433;SDS011;6281;49.038;8.372;2023-04-25T14:37:03;2.40;;;1.83;;
12433;SDS011;6281;49.038;8.372;2023-04-25T14:39:30;2.80;;;2.20;;
12433;SDS011;6281;49.038;8.372;2023-04-25T14:41:57;3.93;;;2.03;;
12433;SDS011;6281;49.038;8.372;2023-04-25T14:44:24;2.70;;;2.10;;
12433;SDS011;6281;49.038;8.372;2023-04-25T14:46:51;2.83;;;2.37;;
12433;SDS011;6281;49.038;8.372;2023-04-25T14:49:18;2.67;;;2.33;;
12433;SDS011;6281;49.038;8.372;2023-04-25T14:51:45;1.97;;;1.70;;
12433;SDS011;6281;49.038;8.372;2023-04-25T14:54:14;3.50;;;1.87;;
12433;SDS011;6281;49.038;8.372;2023-04-25T14:56:41;2.77;;;1.87;;
12433;SDS011;6281;49.038;8.372;2023-04-25T14:59:08;3.13;;;1.90;;
12433;SDS011;6281;49.038;8.372;2023-04-25T15:01:36;2.60;;;2.03;;
12433;SDS011;6281;49.038;8.372;2023-04-25T15:04:03;3.20;;;2.40;;
12433;SDS011;6281;49.038;8.372;2023-04-25T15:06:30;3.00;;;2.00;;